DAL1780 TJSJ-KBOS
Flight info
| Callsign | DAL1780 |
|---|---|
| Flight time | N/A |
| Altitude | 34000 |
| Route | GLADA3 PRCHA/M076F340 L456 MEGGG/M076F350 DCT BALTN DCT DASER DCT KAYYT/N0447F360 Y578 JENYY DCT FERNZ OOSHN5 |
| Aircraft | A21N/M-SDE2E3FGHIRWXY/LB1 |
Departure
| Time | 2026-05-03 23:54 |
|---|---|
| Airport | Luis Munoz Marin International Airport (TJSJ) |
Arrival
| Time | N/A |
|---|---|
| Airport | Boston Logan International Airport (KBOS) |
| Time | Latitude | Longitude | Altitude | Speed | Heading |
|---|---|---|---|---|---|
| 2026-05-03 23:16 | 18.43707 | -66.00162 | -21 ft | 0 kts | 183° |
| 2026-05-03 23:42 | 18.43725 | -66.00162 | -23 ft | 4 kts | 171° |
| 2026-05-03 23:42 | 18.43747 | -66.00171 | -22 ft | 4 kts | 130° |
| 2026-05-03 23:42 | 18.43753 | -66.00189 | -22 ft | 2 kts | 70° |
| 2026-05-03 23:43 | 18.43753 | -66.00190 | -22 ft | 1 kts | 70° |
| 2026-05-03 23:46 | 18.43766 | -66.00151 | -24 ft | 11 kts | 69° |
| 2026-05-03 23:47 | 18.43797 | -66.00069 | -23 ft | 13 kts | 67° |
| 2026-05-03 23:47 | 18.43856 | -66.00058 | -22 ft | 5 kts | 345° |
| 2026-05-03 23:47 | 18.43893 | -66.00070 | -23 ft | 7 kts | 343° |
| 2026-05-03 23:47 | 18.43942 | -66.00091 | -22 ft | 9 kts | 335° |
| 2026-05-03 23:48 | 18.44003 | -66.00121 | -25 ft | 11 kts | 335° |
| 2026-05-03 23:48 | 18.44077 | -66.00156 | -22 ft | 13 kts | 336° |
| 2026-05-03 23:48 | 18.44163 | -66.00195 | -23 ft | 14 kts | 332° |
| 2026-05-03 23:48 | 18.44166 | -66.00299 | -21 ft | 16 kts | 251° |
| 2026-05-03 23:49 | 18.44128 | -66.00399 | -22 ft | 12 kts | 258° |
| 2026-05-03 23:49 | 18.44138 | -66.00489 | -24 ft | 13 kts | 284° |
| 2026-05-03 23:49 | 18.44118 | -66.00589 | -24 ft | 15 kts | 246° |
| 2026-05-03 23:49 | 18.44075 | -66.00696 | -24 ft | 17 kts | 248° |
| 2026-05-03 23:50 | 18.44026 | -66.00817 | -23 ft | 19 kts | 248° |
| 2026-05-03 23:50 | 18.43975 | -66.00948 | -27 ft | 20 kts | 247° |
| 2026-05-03 23:50 | 18.43919 | -66.01083 | -40 ft | 20 kts | 246° |
| 2026-05-03 23:50 | 18.43863 | -66.01218 | -45 ft | 21 kts | 247° |
| 2026-05-03 23:51 | 18.43807 | -66.01358 | -34 ft | 13 kts | 247° |
| 2026-05-03 23:51 | 18.43774 | -66.01439 | -49 ft | 13 kts | 247° |
| 2026-05-03 23:51 | 18.43756 | -66.01503 | -34 ft | 0 kts | 286° |
| 2026-05-03 23:52 | 18.43766 | -66.01525 | -47 ft | 13 kts | 304° |
| 2026-05-03 23:52 | 18.43831 | -66.01573 | -34 ft | 8 kts | 19° |
| 2026-05-03 23:52 | 18.43863 | -66.01522 | -40 ft | 0 kts | 68° |
| 2026-05-03 23:53 | 18.43901 | -66.01428 | -40 ft | 44 kts | 66° |
| 2026-05-03 23:53 | 18.44128 | -66.00871 | -41 ft | 116 kts | 68° |
| 2026-05-03 23:53 | 18.44516 | -65.99896 | -14 ft | 166 kts | 68° |
| 2026-05-03 23:54 | 18.44962 | -65.98832 | 677 ft | 156 kts | 65° |
| 2026-05-03 23:54 | 18.45720 | -65.97923 | 991 ft | 178 kts | 31° |
| 2026-05-03 23:54 | 18.46973 | -65.97729 | 1486 ft | 190 kts | 0° |
| 2026-05-03 23:54 | 18.48331 | -65.97714 | 2049 ft | 201 kts | 5° |
| 2026-05-03 23:55 | 18.49778 | -65.97590 | 2607 ft | 216 kts | 8° |
| 2026-05-03 23:55 | 18.51356 | -65.97532 | 3059 ft | 241 kts | 2° |
| 2026-05-03 23:55 | 18.53118 | -65.97543 | 3530 ft | 264 kts | 3° |
| 2026-05-03 23:55 | 18.55006 | -65.97558 | 4205 ft | 275 kts | 3° |
| 2026-05-03 23:56 | 18.56935 | -65.97572 | 5094 ft | 279 kts | 3° |
| 2026-05-03 23:56 | 18.58885 | -65.97584 | 5939 ft | 282 kts | 2° |
| 2026-05-03 23:56 | 18.60865 | -65.97593 | 6733 ft | 286 kts | 2° |
| 2026-05-03 23:56 | 18.62864 | -65.97605 | 7493 ft | 288 kts | 3° |
| 2026-05-03 23:57 | 18.64875 | -65.97613 | 8279 ft | 291 kts | 2° |
| 2026-05-03 23:57 | 18.66897 | -65.97621 | 9064 ft | 293 kts | 1° |
| 2026-05-03 23:57 | 18.68956 | -65.97626 | 9861 ft | 295 kts | 1° |
| 2026-05-03 23:57 | 18.71042 | -65.97632 | 10398 ft | 306 kts | 0° |
| 2026-05-03 23:58 | 18.73229 | -65.97638 | 10727 ft | 323 kts | 0° |
| 2026-05-03 23:58 | 18.75534 | -65.97643 | 11074 ft | 338 kts | 0° |
| 2026-05-03 23:58 | 18.77908 | -65.97653 | 11587 ft | 346 kts | 360° |
| 2026-05-03 23:58 | 18.80331 | -65.97661 | 12242 ft | 350 kts | 360° |
| 2026-05-03 23:59 | 18.82780 | -65.97670 | 12915 ft | 353 kts | 359° |
| 2026-05-03 23:59 | 18.85239 | -65.97677 | 13587 ft | 356 kts | 359° |
| 2026-05-03 23:59 | 18.87735 | -65.97686 | 14225 ft | 360 kts | 358° |
| 2026-05-03 23:59 | 18.90238 | -65.97693 | 14819 ft | 363 kts | 358° |
| 2026-05-04 00:00 | 18.92786 | -65.97703 | 15425 ft | 366 kts | 358° |
| 2026-05-04 00:00 | 18.95336 | -65.97714 | 16022 ft | 370 kts | 358° |
| 2026-05-04 00:00 | 18.97925 | -65.97740 | 16604 ft | 373 kts | 357° |
| 2026-05-04 00:00 | 19.00535 | -65.97772 | 17194 ft | 377 kts | 357° |
| 2026-05-04 00:01 | 19.03167 | -65.97803 | 17787 ft | 380 kts | 356° |
| 2026-05-04 00:01 | 19.05825 | -65.97836 | 18351 ft | 384 kts | 356° |
| 2026-05-04 00:01 | 19.08504 | -65.97866 | 18851 ft | 387 kts | 357° |
| 2026-05-04 00:01 | 19.11214 | -65.97896 | 19343 ft | 390 kts | 357° |
| 2026-05-04 00:02 | 19.13934 | -65.97924 | 19843 ft | 393 kts | 357° |
| 2026-05-04 00:02 | 19.16687 | -65.97952 | 20337 ft | 396 kts | 357° |
| 2026-05-04 00:02 | 19.19456 | -65.97979 | 20829 ft | 399 kts | 358° |
| 2026-05-04 00:02 | 19.22244 | -65.98012 | 21302 ft | 402 kts | 358° |
| 2026-05-04 00:03 | 19.25057 | -65.98045 | 21793 ft | 405 kts | 358° |
| 2026-05-04 00:03 | 19.27880 | -65.98076 | 22263 ft | 408 kts | 359° |
| 2026-05-04 00:03 | 19.30730 | -65.98108 | 22727 ft | 411 kts | 359° |
| 2026-05-04 00:03 | 19.33606 | -65.98140 | 23191 ft | 414 kts | 360° |
| 2026-05-04 00:04 | 19.36498 | -65.98172 | 23649 ft | 417 kts | 360° |
| 2026-05-04 00:04 | 19.39398 | -65.98205 | 24021 ft | 420 kts | 360° |
| 2026-05-04 00:04 | 19.42331 | -65.98237 | 24394 ft | 422 kts | 360° |
| 2026-05-04 00:04 | 19.45275 | -65.98266 | 24772 ft | 425 kts | 360° |
| 2026-05-04 00:05 | 19.48239 | -65.98299 | 25149 ft | 427 kts | 359° |
| 2026-05-04 00:05 | 19.51230 | -65.98333 | 25519 ft | 430 kts | 359° |
| 2026-05-04 00:05 | 19.54225 | -65.98365 | 25868 ft | 433 kts | 359° |
| 2026-05-04 00:05 | 19.57253 | -65.98398 | 26219 ft | 436 kts | 359° |
| 2026-05-04 00:06 | 19.60289 | -65.98429 | 26571 ft | 438 kts | 359° |
| 2026-05-04 00:06 | 19.63357 | -65.98463 | 26927 ft | 441 kts | 359° |
| 2026-05-04 00:06 | 19.66407 | -65.98497 | 27276 ft | 443 kts | 359° |
| 2026-05-04 00:06 | 19.69520 | -65.98531 | 27597 ft | 446 kts | 359° |
| 2026-05-04 00:07 | 19.72643 | -65.98566 | 27944 ft | 449 kts | 359° |
| 2026-05-04 00:07 | 19.75777 | -65.98601 | 28259 ft | 452 kts | 359° |
| 2026-05-04 00:07 | 19.78927 | -65.98634 | 28590 ft | 454 kts | 359° |
| 2026-05-04 00:07 | 19.82098 | -65.98667 | 28885 ft | 457 kts | 359° |
| 2026-05-04 00:08 | 19.85278 | -65.98708 | 29233 ft | 459 kts | 359° |
| 2026-05-04 00:08 | 19.88477 | -65.98748 | 29526 ft | 462 kts | 359° |
| 2026-05-04 00:08 | 19.91700 | -65.98783 | 29829 ft | 464 kts | 359° |
| 2026-05-04 00:08 | 19.94934 | -65.98823 | 30100 ft | 467 kts | 359° |
| 2026-05-04 00:09 | 19.98189 | -65.98860 | 30371 ft | 469 kts | 359° |
| 2026-05-04 00:09 | 20.01462 | -65.98893 | 30687 ft | 468 kts | 359° |
| 2026-05-04 00:09 | 20.04706 | -65.98923 | 31079 ft | 466 kts | 359° |
| 2026-05-04 00:09 | 20.07937 | -65.98957 | 31510 ft | 463 kts | 359° |
| 2026-05-04 00:10 | 20.11154 | -65.98992 | 31945 ft | 460 kts | 358° |
| 2026-05-04 00:10 | 20.14330 | -65.99027 | 32361 ft | 456 kts | 359° |
| 2026-05-04 00:10 | 20.17512 | -65.98913 | 32721 ft | 455 kts | 2° |
| 2026-05-04 00:10 | 20.20666 | -65.98684 | 33066 ft | 454 kts | 3° |
| 2026-05-04 00:11 | 20.23805 | -65.98446 | 33398 ft | 452 kts | 3° |
| 2026-05-04 00:11 | 20.26930 | -65.98209 | 33720 ft | 451 kts | 2° |
| 2026-05-04 00:11 | 20.30014 | -65.97975 | 34027 ft | 450 kts | 2° |
| 2026-05-04 00:11 | 20.33182 | -65.97736 | 34131 ft | 450 kts | 2° |
| 2026-05-04 00:12 | 20.39413 | -65.97275 | 34124 ft | 448 kts | 2° |
| 2026-05-04 00:12 | 20.45641 | -65.96810 | 34098 ft | 448 kts | 2° |
| 2026-05-04 00:13 | 20.51822 | -65.96349 | 34101 ft | 448 kts | 2° |
| 2026-05-04 00:13 | 20.58037 | -65.95887 | 34101 ft | 448 kts | 2° |
| 2026-05-04 00:14 | 20.64253 | -65.95425 | 34102 ft | 448 kts | 2° |
| 2026-05-04 00:14 | 20.70476 | -65.94963 | 34107 ft | 448 kts | 2° |
| 2026-05-04 00:15 | 20.76693 | -65.94505 | 34104 ft | 448 kts | 2° |
| 2026-05-04 00:15 | 20.82909 | -65.94034 | 34107 ft | 448 kts | 2° |
| 2026-05-04 00:16 | 20.89126 | -65.93568 | 34106 ft | 448 kts | 2° |
| 2026-05-04 00:16 | 20.95336 | -65.93101 | 34106 ft | 448 kts | 2° |
| 2026-05-04 00:17 | 21.01551 | -65.92641 | 34111 ft | 448 kts | 2° |
| 2026-05-04 00:17 | 21.07767 | -65.92168 | 34109 ft | 448 kts | 3° |
| 2026-05-04 00:18 | 21.13979 | -65.91693 | 34109 ft | 448 kts | 2° |
| 2026-05-04 00:18 | 21.20201 | -65.91237 | 34114 ft | 448 kts | 2° |
| 2026-05-04 00:19 | 21.26417 | -65.90760 | 34112 ft | 447 kts | 3° |
| 2026-05-04 00:19 | 21.32620 | -65.90290 | 34116 ft | 448 kts | 2° |
| 2026-05-04 00:20 | 21.38843 | -65.89821 | 34113 ft | 448 kts | 2° |
| 2026-05-04 00:20 | 21.45050 | -65.89350 | 34115 ft | 447 kts | 2° |
| 2026-05-04 00:21 | 21.51267 | -65.89115 | 34110 ft | 446 kts | 353° |
| 2026-05-04 00:21 | 21.57252 | -65.90656 | 34125 ft | 443 kts | 341° |
| 2026-05-04 00:22 | 21.63136 | -65.92650 | 34116 ft | 443 kts | 341° |
| 2026-05-04 00:22 | 21.68043 | -65.94260 | 34117 ft | 443 kts | 341° |
| 2026-05-04 00:23 | 21.73940 | -65.96175 | 34117 ft | 443 kts | 341° |
| 2026-05-04 00:23 | 21.79849 | -65.98100 | 34118 ft | 443 kts | 341° |
| 2026-05-04 00:24 | 21.85742 | -66.00033 | 34120 ft | 443 kts | 341° |
| 2026-05-04 00:24 | 21.91752 | -66.02007 | 34125 ft | 443 kts | 341° |
| 2026-05-04 00:25 | 21.97653 | -66.03944 | 34121 ft | 443 kts | 341° |
| 2026-05-04 00:25 | 22.03545 | -66.05881 | 34123 ft | 443 kts | 341° |
| 2026-05-04 00:26 | 22.09437 | -66.07820 | 34122 ft | 443 kts | 341° |
| 2026-05-04 00:26 | 22.15329 | -66.09757 | 34121 ft | 443 kts | 341° |
| 2026-05-04 00:27 | 22.21224 | -66.11700 | 34124 ft | 443 kts | 341° |
| 2026-05-04 00:27 | 22.27123 | -66.13647 | 34125 ft | 443 kts | 341° |
| 2026-05-04 00:28 | 22.33014 | -66.15589 | 34127 ft | 443 kts | 341° |
| 2026-05-04 00:28 | 22.38904 | -66.17534 | 34127 ft | 443 kts | 341° |
| 2026-05-04 00:29 | 22.44801 | -66.19487 | 34124 ft | 443 kts | 341° |
| 2026-05-04 00:29 | 22.50692 | -66.21433 | 34124 ft | 443 kts | 341° |
| 2026-05-04 00:30 | 22.56591 | -66.23383 | 34130 ft | 443 kts | 340° |
| 2026-05-04 00:30 | 22.62478 | -66.25338 | 34131 ft | 443 kts | 340° |
| 2026-05-04 00:31 | 22.68365 | -66.27293 | 34128 ft | 443 kts | 340° |
| 2026-05-04 00:31 | 22.74215 | -66.29239 | 34128 ft | 443 kts | 340° |
| 2026-05-04 00:32 | 22.80139 | -66.31203 | 34128 ft | 443 kts | 340° |
| 2026-05-04 00:32 | 22.86034 | -66.33163 | 34132 ft | 443 kts | 340° |
| 2026-05-04 00:33 | 22.94899 | -66.35821 | 34132 ft | 445 kts | 346° |
| 2026-05-04 00:34 | 23.00984 | -66.37072 | 34134 ft | 445 kts | 346° |
| 2026-05-04 00:34 | 23.07062 | -66.38325 | 34130 ft | 445 kts | 346° |
| 2026-05-04 00:35 | 23.13148 | -66.39586 | 34129 ft | 445 kts | 346° |
| 2026-05-04 00:35 | 23.19231 | -66.40840 | 34133 ft | 446 kts | 346° |
| 2026-05-04 00:36 | 23.25329 | -66.42112 | 34133 ft | 446 kts | 346° |
| 2026-05-04 00:36 | 23.31420 | -66.43380 | 34133 ft | 446 kts | 346° |
| 2026-05-04 00:37 | 23.37513 | -66.44665 | 34133 ft | 446 kts | 346° |
| 2026-05-04 00:37 | 23.43612 | -66.45934 | 34132 ft | 446 kts | 346° |
| 2026-05-04 00:38 | 23.49705 | -66.47216 | 34137 ft | 447 kts | 346° |
| 2026-05-04 00:38 | 23.55815 | -66.48485 | 34137 ft | 447 kts | 346° |
| 2026-05-04 00:39 | 23.61934 | -66.49759 | 34139 ft | 447 kts | 346° |
| 2026-05-04 00:39 | 23.68038 | -66.51034 | 34139 ft | 447 kts | 346° |
| 2026-05-04 00:40 | 23.73157 | -66.52109 | 34136 ft | 447 kts | 346° |
| 2026-05-04 00:40 | 23.80259 | -66.53600 | 34138 ft | 448 kts | 345° |
| 2026-05-04 00:41 | 23.86379 | -66.54881 | 34141 ft | 448 kts | 345° |
| 2026-05-04 00:41 | 23.92495 | -66.56169 | 34139 ft | 448 kts | 345° |
| 2026-05-04 00:42 | 23.98616 | -66.57451 | 34131 ft | 448 kts | 345° |
| 2026-05-04 00:42 | 24.04746 | -66.58742 | 34136 ft | 449 kts | 345° |
| 2026-05-04 00:43 | 24.10880 | -66.60039 | 34140 ft | 449 kts | 345° |
| 2026-05-04 00:43 | 24.17014 | -66.61320 | 34141 ft | 449 kts | 345° |
| 2026-05-04 00:44 | 24.23156 | -66.62616 | 34133 ft | 449 kts | 345° |
| 2026-05-04 00:44 | 24.29308 | -66.63904 | 34145 ft | 449 kts | 345° |
| 2026-05-04 00:45 | 24.35435 | -66.65199 | 34148 ft | 449 kts | 345° |
| 2026-05-04 00:45 | 24.41591 | -66.66498 | 34137 ft | 450 kts | 345° |
| 2026-05-04 00:46 | 24.47751 | -66.67799 | 34141 ft | 451 kts | 345° |
| 2026-05-04 00:46 | 24.53901 | -66.69095 | 34143 ft | 450 kts | 345° |
| 2026-05-04 00:47 | 24.60057 | -66.70399 | 34142 ft | 450 kts | 345° |
| 2026-05-04 00:47 | 24.66204 | -66.71703 | 34142 ft | 450 kts | 345° |
| 2026-05-04 00:48 | 24.72314 | -66.73008 | 34141 ft | 450 kts | 344° |
| 2026-05-04 00:48 | 24.78504 | -66.74325 | 34139 ft | 450 kts | 344° |
| 2026-05-04 00:49 | 24.84663 | -66.75635 | 34137 ft | 450 kts | 344° |
| 2026-05-04 00:49 | 24.90814 | -66.76947 | 34142 ft | 450 kts | 344° |
| 2026-05-04 00:50 | 24.96922 | -66.78249 | 34151 ft | 451 kts | 344° |
| 2026-05-04 00:50 | 25.03083 | -66.79567 | 34142 ft | 451 kts | 344° |
| 2026-05-04 00:51 | 25.09240 | -66.80884 | 34141 ft | 451 kts | 344° |
| 2026-05-04 00:51 | 25.15398 | -66.82202 | 34139 ft | 451 kts | 344° |
| 2026-05-04 00:52 | 25.21561 | -66.83522 | 34141 ft | 451 kts | 344° |
| 2026-05-04 00:52 | 25.27718 | -66.84846 | 34153 ft | 451 kts | 344° |
| 2026-05-04 00:53 | 25.33878 | -66.86170 | 34143 ft | 451 kts | 344° |
| 2026-05-04 00:53 | 25.40040 | -66.87488 | 34142 ft | 451 kts | 344° |
| 2026-05-04 00:54 | 25.46203 | -66.88817 | 34139 ft | 451 kts | 344° |
| 2026-05-04 00:54 | 25.52369 | -66.90149 | 34141 ft | 452 kts | 343° |
| 2026-05-04 00:55 | 25.58548 | -66.91481 | 34152 ft | 453 kts | 343° |
| 2026-05-04 00:55 | 25.64730 | -66.92813 | 34142 ft | 453 kts | 343° |
| 2026-05-04 00:56 | 25.70916 | -66.94148 | 34142 ft | 453 kts | 343° |
| 2026-05-04 00:56 | 25.77113 | -66.95489 | 34142 ft | 453 kts | 343° |
| 2026-05-04 00:57 | 25.83296 | -66.96828 | 34139 ft | 453 kts | 343° |
| 2026-05-04 00:57 | 25.89486 | -66.98170 | 34137 ft | 453 kts | 343° |
| 2026-05-04 00:58 | 25.95677 | -66.99513 | 34143 ft | 453 kts | 343° |
| 2026-05-04 00:58 | 26.01814 | -67.00846 | 34141 ft | 453 kts | 343° |
| 2026-05-04 00:59 | 26.08002 | -67.02195 | 34143 ft | 453 kts | 343° |
| 2026-05-04 00:59 | 26.14190 | -67.03542 | 34142 ft | 453 kts | 343° |
| 2026-05-04 01:00 | 26.20372 | -67.04890 | 34143 ft | 454 kts | 343° |
| 2026-05-04 01:00 | 26.26572 | -67.06252 | 34142 ft | 454 kts | 343° |
| 2026-05-04 01:01 | 26.32762 | -67.07603 | 34142 ft | 454 kts | 343° |
| 2026-05-04 01:01 | 26.38964 | -67.08949 | 34140 ft | 454 kts | 343° |
| 2026-05-04 01:02 | 26.45161 | -67.10306 | 34161 ft | 454 kts | 343° |
| 2026-05-04 01:02 | 26.50311 | -67.11435 | 34145 ft | 454 kts | 342° |
| 2026-05-04 01:03 | 26.56511 | -67.12799 | 34140 ft | 454 kts | 342° |
| 2026-05-04 01:03 | 26.62706 | -67.14156 | 34139 ft | 454 kts | 342° |
| 2026-05-04 01:04 | 26.68898 | -67.15515 | 34134 ft | 454 kts | 342° |
| 2026-05-04 01:04 | 26.74050 | -67.16651 | 34150 ft | 454 kts | 342° |